Time;durP1;ratioP1;P1;durP2;ratioP2;P2;SDS_P1;SDS_P2;PMS_P1;PMS_P2;Temp;Humidity;BMP_temperature;BMP_pressure;BME280_temperature;BME280_humidity;BME280_pressure;Samples;Min_cycle;Max_cycle;Signal;HPM_P1;HPM_P2
2021/06/28 00:02:04;;;;;;;3.00;2.80;;;26.10;82.20;;;;;;6214284;23;20415;-92
2021/06/28 00:04:31;;;;;;;2.47;2.30;;;26.10;82.10;;;;;;6214316;23;20436;-93
2021/06/28 00:06:58;;;;;;;3.10;2.73;;;26.10;82.10;;;;;;6214655;23;20414;-94
2021/06/28 00:09:26;;;;;;;2.60;2.50;;;26.10;82.10;;;;;;6197702;23;20467;-96
2021/06/28 00:11:53;;;;;;;2.50;2.40;;;26.20;82.30;;;;;;6196915;23;20409;-96
2021/06/28 00:14:20;;;;;;;3.13;2.93;;;26.10;82.20;;;;;;6195090;23;20422;-96
2021/06/28 00:17:06;;;;;;;2.77;2.57;;;26.10;82.10;;;;;;6193753;23;20851;-96
2021/06/28 00:19:33;;;;;;;2.90;2.70;;;26.10;82.20;;;;;;6192526;23;20785;-96
2021/06/28 00:22:00;;;;;;;3.13;2.93;;;26.10;83.20;;;;;;6191451;23;20489;-96
2021/06/28 00:24:28;;;;;;;3.17;2.97;;;26.10;82.20;;;;;;6191482;23;20407;-96
2021/06/28 00:26:55;;;;;;;2.90;2.70;;;26.10;82.40;;;;;;6191700;23;20445;-96
2021/06/28 00:29:23;;;;;;;2.37;2.20;;;26.10;82.40;;;;;;6191041;23;20402;-96
2021/06/28 00:31:51;;;;;;;2.87;2.67;;;26.10;82.30;;;;;;6190454;23;20525;-96
2021/06/28 00:34:18;;;;;;;2.73;2.63;;;26.10;82.20;;;;;;6190235;23;20403;-96
2021/06/28 00:36:45;;;;;;;3.53;2.70;;;26.10;82.30;;;;;;6189138;23;20513;-96
2021/06/28 00:39:12;;;;;;;2.43;2.33;;;26.10;82.30;;;;;;6189834;23;20410;-96
2021/06/28 00:41:40;;;;;;;2.60;2.50;;;26.10;82.30;;;;;;6189437;23;20406;-96
2021/06/28 00:44:07;;;;;;;2.37;2.20;;;26.10;82.20;;;;;;6189207;23;20496;-96
2021/06/28 00:46:34;;;;;;;2.70;2.53;;;26.10;82.30;;;;;;6189087;23;20476;-96
2021/06/28 00:49:02;;;;;;;2.20;2.10;;;26.10;82.20;;;;;;6188961;23;20918;-96
2021/06/28 00:51:29;;;;;;;2.20;2.10;;;26.20;82.30;;;;;;6191303;23;20441;-96
2021/06/28 00:53:56;;;;;;;2.07;1.97;;;26.10;83.00;;;;;;6189080;23;20412;-94
2021/06/28 00:56:24;;;;;;;2.67;2.57;;;26.10;82.10;;;;;;6188207;23;20434;-96
2021/06/28 00:58:56;;;;;;;2.87;2.67;;;26.10;82.30;;;;;;6188858;23;20402;-96
2021/06/28 01:01:23;;;;;;;3.00;2.80;;;26.10;82.30;;;;;;6188558;23;20422;-96
2021/06/28 01:03:50;;;;;;;2.80;2.60;;;26.10;82.30;;;;;;6177596;23;20518;-96
2021/06/28 01:06:17;;;;;;;2.90;2.70;;;26.10;82.20;;;;;;6193092;23;20481;-96
2021/06/28 01:08:45;;;;;;;2.57;2.47;;;26.10;82.30;;;;;;6190165;23;20425;-96
2021/06/28 01:11:12;;;;;;;2.53;2.40;;;26.10;82.20;;;;;;6187960;23;20398;-95
2021/06/28 01:13:41;;;;;;;2.57;2.47;;;26.10;83.00;;;;;;6187795;23;20410;-96
2021/06/28 01:16:10;;;;;;;2.77;2.57;;;26.10;82.20;;;;;;6188056;23;20489;-96
2021/06/28 01:18:38;;;;;;;2.63;2.47;;;26.10;82.10;;;;;;6189405;23;20432;-96
2021/06/28 01:21:07;;;;;;;2.90;2.70;;;26.10;82.10;;;;;;6188319;23;20406;-96
2021/06/28 01:23:36;;;;;;;2.50;2.40;;;26.10;82.10;;;;;;6188461;23;20412;-96
2021/06/28 01:26:04;;;;;;;2.23;2.13;;;26.10;82.10;;;;;;6188872;23;20406;-96
2021/06/28 01:28:32;;;;;;;2.53;2.37;;;26.10;82.20;;;;;;6188981;23;20440;-96
2021/06/28 01:31:00;;;;;;;2.53;2.43;;;26.10;82.00;;;;;;6163223;23;20509;-94
2021/06/28 01:33:27;;;;;;;2.23;2.13;;;26.00;81.90;;;;;;6188737;23;20429;-96
2021/06/28 01:35:54;;;;;;;2.50;2.40;;;26.00;81.90;;;;;;6188733;23;20444;-96
2021/06/28 01:38:21;;;;;;;2.83;2.63;;;26.00;81.90;;;;;;6162564;23;20442;-96
2021/06/28 01:40:50;;;;;;;2.50;2.40;;;26.10;82.10;;;;;;6188536;23;20890;-96
2021/06/28 01:43:18;;;;;;;2.23;2.13;;;26.10;82.10;;;;;;6188512;23;20463;-96
2021/06/28 01:45:45;;;;;;;2.60;2.43;;;26.00;82.00;;;;;;6188923;23;20427;-96
2021/06/28 01:48:12;;;;;;;2.67;2.47;;;26.00;82.00;;;;;;6163022;23;20929;-96
2021/06/28 01:50:40;;;;;;;2.80;2.67;;;26.00;81.90;;;;;;6188844;23;20489;-96
2021/06/28 01:53:08;;;;;;;2.73;2.63;;;26.00;81.90;;;;;;6188352;23;20424;-96
2021/06/28 01:55:36;;;;;;;2.60;2.50;;;26.20;82.10;;;;;;6188702;23;20934;-96
2021/06/28 01:58:06;;;;;;;2.60;2.50;;;26.00;81.90;;;;;;6188307;23;20447;-96
2021/06/28 02:00:37;;;;;;;2.10;2.00;;;26.00;81.90;;;;;;6189134;23;20477;-96
2021/06/28 02:03:06;;;;;;;2.57;2.47;;;26.00;81.90;;;;;;6188616;23;20452;-96
2021/06/28 02:05:35;;;;;;;2.83;2.63;;;26.00;81.80;;;;;;6188507;23;20431;-96
2021/06/28 02:08:05;;;;;;;2.90;2.70;;;26.00;81.80;;;;;;6188912;23;20438;-96
2021/06/28 02:10:31;;;;;;;2.77;2.67;;;26.10;81.90;;;;;;6188196;23;20441;-96
2021/06/28 02:12:58;;;;;;;2.87;2.67;;;26.10;81.90;;;;;;6191413;23;20556;-96
2021/06/28 02:15:29;;;;;;;2.40;2.30;;;26.00;81.80;;;;;;6190340;23;20784;-96
2021/06/28 02:17:57;;;;;;;1.93;1.83;;;26.00;81.80;;;;;;6189417;23;20504;-95
2021/06/28 02:20:24;;;;;;;2.30;2.20;;;26.00;81.90;;;;;;6189794;23;20799;-96
2021/06/28 02:22:53;;;;;;;2.00;1.90;;;26.00;81.80;;;;;;6190073;23;20501;-96
2021/06/28 02:25:22;;;;;;;2.30;2.20;;;26.10;81.90;;;;;;6190603;23;20401;-96
2021/06/28 02:27:49;;;;;;;2.53;2.33;;;26.00;81.80;;;;;;6191214;23;20410;-96
2021/06/28 02:30:18;;;;;;;2.60;2.50;;;26.00;81.90;;;;;;6192988;23;20791;-96
2021/06/28 02:32:46;;;;;;;2.23;2.13;;;26.00;81.80;;;;;;6190123;23;20458;-96
2021/06/28 02:35:14;;;;;;;2.87;2.67;;;26.10;81.90;;;;;;6189977;23;20432;-96
2021/06/28 02:37:43;;;;;;;2.43;2.33;;;26.00;81.80;;;;;;6189898;23;20540;-96
2021/06/28 02:40:13;;;;;;;2.37;2.27;;;26.00;81.80;;;;;;6189892;23;20453;-95
2021/06/28 02:42:41;;;;;;;2.50;2.40;;;26.00;81.70;;;;;;6189725;23;20402;-96
2021/06/28 02:45:09;;;;;;;2.57;2.40;;;26.00;81.80;;;;;;6190986;23;20411;-96
2021/06/28 02:47:37;;;;;;;2.27;2.17;;;26.00;81.80;;;;;;6192369;23;20406;-96
2021/06/28 02:50:08;;;;;;;2.47;2.30;;;26.00;81.80;;;;;;6192919;23;20411;-95
2021/06/28 02:52:35;;;;;;;2.70;2.50;;;26.00;81.70;;;;;;6201668;23;20448;-95
2021/06/28 02:55:02;;;;;;;2.23;2.03;;;26.10;81.90;;;;;;6202098;23;20498;-96
2021/06/28 02:57:29;;;;;;;2.60;2.50;;;26.00;81.70;;;;;;6190159;23;20442;-96
2021/06/28 02:59:56;;;;;;;2.10;2.00;;;26.10;81.80;;;;;;6190051;23;20414;-96
2021/06/28 03:02:22;;;;;;;2.00;1.90;;;26.00;81.70;;;;;;6190167;23;20458;-96
2021/06/28 03:04:49;;;;;;;2.60;2.40;;;26.10;81.80;;;;;;6177510;23;20410;-96
2021/06/28 03:07:19;;;;;;;2.83;2.67;;;26.00;81.70;;;;;;6189720;23;20413;-96
2021/06/28 03:09:46;;;;;;;2.13;2.03;;;26.00;81.80;;;;;;6189317;23;20431;-96
2021/06/28 03:12:13;;;;;;;2.80;2.60;;;26.00;81.70;;;;;;6189401;23;20420;-96
2021/06/28 03:14:40;;;;;;;2.20;2.10;;;26.00;81.70;;;;;;6189178;23;20438;-96
2021/06/28 03:17:07;;;;;;;2.03;1.93;;;26.00;81.60;;;;;;6188448;23;20441;-95
2021/06/28 03:19:34;;;;;;;2.20;2.10;;;26.00;81.60;;;;;;6190277;23;20413;-96
2021/06/28 03:22:01;;;;;;;2.20;2.10;;;26.00;81.70;;;;;;6187771;23;20420;-96
2021/06/28 03:24:29;;;;;;;2.30;2.20;;;26.00;81.50;;;;;;6188285;23;20492;-95
2021/06/28 03:26:57;;;;;;;2.40;2.30;;;26.00;81.70;;;;;;6188600;23;20498;-95
2021/06/28 03:29:24;;;;;;;2.50;2.40;;;26.00;81.60;;;;;;6188653;23;20415;-96
2021/06/28 03:31:51;;;;;;;2.00;1.90;;;26.00;81.60;;;;;;6187460;23;20441;-96
2021/06/28 03:34:18;;;;;;;2.00;1.90;;;26.00;82.40;;;;;;6188006;23;20425;-96
2021/06/28 03:36:45;;;;;;;2.70;2.50;;;26.00;81.60;;;;;;6187901;23;20450;-96
2021/06/28 03:39:12;;;;;;;2.37;2.27;;;26.00;81.60;;;;;;6188381;23;21052;-95
2021/06/28 03:41:46;;;;;;;2.80;2.60;;;26.00;81.60;;;;;;6188478;23;20409;-96
2021/06/28 03:44:13;;;;;;;2.27;2.17;;;26.00;81.60;;;;;;6188139;23;20417;-96
2021/06/28 03:46:40;;;;;;;2.80;2.60;;;26.00;81.60;;;;;;6187346;23;20803;-96
2021/06/28 03:49:08;;;;;;;2.20;2.10;;;26.00;81.60;;;;;;6187567;23;20444;-96
2021/06/28 03:51:35;;;;;;;2.50;2.40;;;26.00;81.60;;;;;;6187697;23;20790;-96
2021/06/28 03:54:03;;;;;;;2.20;2.10;;;26.00;81.70;;;;;;6188426;23;20492;-96
2021/06/28 03:56:30;;;;;;;2.30;2.20;;;26.00;81.50;;;;;;6187949;23;20599;-96
2021/06/28 03:58:58;;;;;;;2.67;2.57;;;26.00;81.60;;;;;;6188727;23;20444;-96
2021/06/28 04:01:25;;;;;;;2.13;2.03;;;26.00;81.50;;;;;;6189508;23;20490;-96
2021/06/28 04:03:54;;;;;;;2.50;2.40;;;26.00;81.40;;;;;;6189883;23;20465;-96
2021/06/28 04:06:21;;;;;;;3.07;2.87;;;26.00;81.60;;;;;;6188450;23;20931;-96
2021/06/28 04:08:48;;;;;;;2.33;2.23;;;26.00;81.60;;;;;;6189180;23;20501;-96
2021/06/28 04:11:17;;;;;;;2.30;2.20;;;26.00;81.50;;;;;;6188461;23;20399;-96
2021/06/28 04:13:44;;;;;;;1.90;1.80;;;26.00;81.50;;;;;;6190213;23;20413;-96
2021/06/28 04:16:12;;;;;;;1.97;1.87;;;26.00;81.50;;;;;;6191098;23;20749;-96
2021/06/28 04:18:39;;;;;;;2.43;2.33;;;26.00;81.40;;;;;;6188827;23;20525;-96
2021/06/28 04:21:07;;;;;;;1.97;1.87;;;26.00;81.40;;;;;;6188200;23;20406;-96
2021/06/28 04:23:33;;;;;;;2.33;2.20;;;26.00;81.40;;;;;;6188966;23;20412;-96
2021/06/28 04:26:00;;;;;;;2.53;2.43;;;26.10;81.60;;;;;;6188831;23;20890;-96
2021/06/28 04:28:29;;;;;;;2.57;2.47;;;26.00;81.50;;;;;;6194962;23;20421;-96
2021/06/28 04:30:56;;;;;;;2.53;2.43;;;26.00;81.40;;;;;;6192616;23;20464;-96
2021/06/28 04:33:24;;;;;;;2.43;2.33;;;26.00;81.50;;;;;;6190452;23;20959;-96
2021/06/28 04:35:52;;;;;;;2.20;2.10;;;26.00;81.40;;;;;;6176060;23;20984;-96
2021/06/28 04:38:18;;;;;;;2.20;2.10;;;26.00;81.50;;;;;;6188888;23;20456;-96
2021/06/28 04:40:46;;;;;;;2.20;2.10;;;26.00;81.50;;;;;;6189082;23;20500;-96
2021/06/28 04:43:13;;;;;;;2.50;2.40;;;26.00;81.60;;;;;;6188259;23;20500;-96
2021/06/28 04:45:40;;;;;;;3.10;2.90;;;26.00;81.60;;;;;;6188297;23;20803;-96
2021/06/28 04:48:09;;;;;;;2.50;2.40;;;26.00;82.50;;;;;;6202095;23;20402;-93
2021/06/28 04:50:37;;;;;;;2.50;2.40;;;26.00;81.70;;;;;;6214079;23;20526;-95
2021/06/28 04:53:04;;;;;;;2.20;2.10;;;26.00;81.60;;;;;;6214339;23;20398;-91
2021/06/28 04:55:31;;;;;;;2.30;2.20;;;26.00;81.70;;;;;;6207821;23;20406;-96
2021/06/28 04:57:58;;;;;;;3.03;2.83;;;26.00;81.70;;;;;;6196858;23;20831;-96
2021/06/28 05:00:26;;;;;;;2.43;2.30;;;26.00;81.70;;;;;;6195882;23;20406;-96
2021/06/28 05:02:53;;;;;;;2.37;2.27;;;26.00;81.70;;;;;;6193671;23;20429;-96
2021/06/28 05:05:20;;;;;;;2.63;2.50;;;26.00;81.90;;;;;;6194281;23;20445;-96
2021/06/28 05:07:49;;;;;;;3.10;2.90;;;26.00;81.90;;;;;;6193015;23;20410;-96
2021/06/28 05:10:17;;;;;;;2.43;2.33;;;26.00;81.90;;;;;;6192436;23;20413;-96
2021/06/28 05:12:45;;;;;;;2.50;2.37;;;26.00;81.90;;;;;;6191374;23;20498;-96
2021/06/28 05:15:13;;;;;;;2.20;2.10;;;26.00;82.00;;;;;;6190556;23;20972;-96
2021/06/28 05:17:40;;;;;;;3.30;3.10;;;26.00;81.90;;;;;;6191223;23;20513;-95
2021/06/28 05:20:11;;;;;;;2.70;2.50;;;26.00;81.90;;;;;;6194066;23;20425;-94
2021/06/28 05:22:39;;;;;;;2.37;2.23;;;26.00;81.90;;;;;;6188750;23;20413;-95
2021/06/28 05:25:10;;;;;;;2.03;1.90;;;26.00;81.90;;;;;;6187682;23;20409;-95
2021/06/28 05:27:37;;;;;;;4.27;3.90;;;26.00;81.30;;;;;;6187038;23;20407;-88
2021/06/28 05:30:07;;;;;;;7.67;6.97;;;26.00;82.20;;;;;;6186032;23;20425;-89
2021/06/28 05:32:35;;;;;;;8.10;7.30;;;26.00;85.10;;;;;;6186259;23;20427;-89
2021/06/28 05:35:01;;;;;;;9.70;8.80;;;25.90;86.30;;;;;;6186450;23;20410;-89
2021/06/28 05:37:28;;;;;;;10.47;9.37;;;25.80;87.20;;;;;;6186007;23;20494;-89
2021/06/28 05:39:55;;;;;;;9.03;8.23;;;25.80;88.00;;;;;;6185724;23;20411;-89
2021/06/28 05:42:23;;;;;;;9.50;8.60;;;25.70;88.40;;;;;;6185451;23;20402;-89
2021/06/28 05:44:50;;;;;;;9.30;8.23;;;25.70;89.10;;;;;;6185993;23;20909;-89
2021/06/28 05:47:21;;;;;;;9.70;8.83;;;25.60;89.40;;;;;;6187514;23;20406;-94
2021/06/28 05:49:48;;;;;;;10.47;9.57;;;25.60;89.60;;;;;;6189180;23;20410;-94
2021/06/28 05:52:19;;;;;;;10.07;9.27;;;25.60;89.90;;;;;;6189195;23;20896;-96
2021/06/28 05:54:48;;;;;;;10.30;8.90;;;25.60;90.00;;;;;;6189062;23;20484;-94
2021/06/28 05:57:18;;;;;;;10.77;9.77;;;25.70;90.20;;;;;;6188139;23;20785;-94
2021/06/28 05:59:46;;;;;;;11.17;9.67;;;25.70;90.30;;;;;;6187562;23;20445;-94
2021/06/28 06:02:14;;;;;;;10.60;9.67;;;25.70;90.40;;;;;;6188424;23;20951;-94
2021/06/28 06:04:43;;;;;;;16.07;8.87;;;25.80;90.40;;;;;;6188976;23;20394;-94
2021/06/28 06:07:10;;;;;;;10.10;9.10;;;25.70;90.30;;;;;;6188568;23;20645;-93
2021/06/28 06:09:37;;;;;;;8.90;8.10;;;25.70;90.30;;;;;;6188509;23;20457;-94
2021/06/28 06:12:06;;;;;;;10.80;8.03;;;25.70;90.30;;;;;;6187918;23;20954;-94
2021/06/28 06:14:33;;;;;;;8.90;8.10;;;25.70;90.30;;;;;;6187992;23;20437;-94
2021/06/28 06:17:01;;;;;;;9.80;8.90;;;25.80;90.30;;;;;;6188381;23;20539;-94
2021/06/28 06:19:28;;;;;;;9.37;8.60;;;25.90;90.30;;;;;;6188887;23;20452;-94
2021/06/28 06:21:55;;;;;;;9.20;8.40;;;25.80;90.30;;;;;;6188132;23;20420;-95
2021/06/28 06:24:27;;;;;;;9.53;8.53;;;25.80;90.30;;;;;;6188748;23;20409;-94
2021/06/28 06:27:00;;;;;;;10.63;9.60;;;25.80;90.40;;;;;;6189472;23;20410;-94
2021/06/28 06:29:27;;;;;;;18.57;9.70;;;25.90;90.50;;;;;;6187702;23;20742;-94
2021/06/28 06:31:54;;;;;;;9.20;8.40;;;25.80;90.60;;;;;;6187007;23;20434;-89
2021/06/28 06:34:24;;;;;;;10.60;9.63;;;25.80;90.80;;;;;;6186611;23;20416;-89
2021/06/28 06:36:51;;;;;;;10.40;9.33;;;25.80;91.00;;;;;;6187269;23;20416;-89
2021/06/28 06:39:18;;;;;;;11.07;10.03;;;25.90;91.20;;;;;;6186878;23;20841;-89
2021/06/28 06:41:47;;;;;;;12.93;9.23;;;25.90;91.70;;;;;;6186340;23;20927;-88
2021/06/28 06:44:14;;;;;;;9.87;8.87;;;25.90;91.50;;;;;;6186480;23;20410;-89
2021/06/28 06:46:41;;;;;;;7.13;6.40;;;25.90;91.50;;;;;;6186632;23;20781;-90
2021/06/28 06:49:08;;;;;;;7.73;6.20;;;25.90;91.00;;;;;;6186952;23;20949;-89
2021/06/28 06:51:36;;;;;;;6.60;6.00;;;26.00;90.50;;;;;;6187066;23;20410;-89
2021/06/28 06:54:03;;;;;;;6.47;5.97;;;25.90;90.10;;;;;;6187130;23;20904;-90
2021/06/28 06:56:30;;;;;;;6.60;6.10;;;25.90;89.90;;;;;;6187268;23;20886;-89
2021/06/28 06:58:57;;;;;;;6.23;5.57;;;25.90;89.40;;;;;;6186898;23;20450;-89
2021/06/28 07:01:24;;;;;;;5.80;5.30;;;25.90;88.90;;;;;;6186600;23;20413;-89
2021/06/28 07:03:51;;;;;;;5.83;5.20;;;26.00;88.70;;;;;;6186751;23;20413;-89
2021/06/28 07:06:17;;;;;;;5.80;5.30;;;26.00;88.40;;;;;;6186578;23;20403;-89
2021/06/28 07:08:46;;;;;;;5.20;4.80;;;25.90;88.30;;;;;;6186847;23;20413;-89
2021/06/28 07:11:12;;;;;;;6.43;5.80;;;26.00;88.10;;;;;;6186723;23;20403;-89
2021/06/28 07:13:39;;;;;;;4.83;4.53;;;25.90;88.60;;;;;;6186655;23;20406;-90
2021/06/28 07:16:07;;;;;;;6.00;4.87;;;26.00;87.90;;;;;;6187067;23;20406;-89
2021/06/28 07:18:34;;;;;;;5.57;4.80;;;26.00;87.60;;;;;;6186999;23;20504;-89
2021/06/28 07:21:01;;;;;;;5.20;4.80;;;26.00;87.30;;;;;;6186871;23;20748;-89
2021/06/28 07:23:28;;;;;;;5.33;4.63;;;26.00;87.00;;;;;;6186503;23;20928;-89
2021/06/28 07:25:56;;;;;;;5.33;4.93;;;26.00;86.90;;;;;;6186911;23;20494;-90
2021/06/28 07:28:23;;;;;;;5.20;4.40;;;26.00;86.90;;;;;;6186970;23;20403;-90
2021/06/28 07:30:50;;;;;;;4.40;4.10;;;26.00;86.80;;;;;;6186329;23;20948;-90
2021/06/28 07:33:18;;;;;;;5.23;4.63;;;26.00;86.70;;;;;;6186896;23;21000;-90
2021/06/28 07:35:45;;;;;;;4.73;4.37;;;26.00;86.50;;;;;;6187017;23;20409;-89
2021/06/28 07:38:12;;;;;;;4.57;4.27;;;26.00;86.40;;;;;;6186283;23;20450;-90
2021/06/28 07:40:39;;;;;;;5.20;4.90;;;26.00;86.40;;;;;;6186416;23;20410;-90
2021/06/28 07:43:07;;;;;;;5.47;4.97;;;26.10;87.30;;;;;;6186648;23;20409;-90
2021/06/28 07:45:34;;;;;;;6.50;4.77;;;26.00;86.40;;;;;;6187302;23;20436;-89
2021/06/28 07:48:02;;;;;;;4.63;4.10;;;26.00;86.20;;;;;;6186458;23;20875;-89
2021/06/28 07:50:29;;;;;;;4.70;4.30;;;26.00;86.90;;;;;;6186657;23;20413;-90
2021/06/28 07:52:56;;;;;;;5.03;4.53;;;26.00;86.10;;;;;;6186819;23;20442;-90
2021/06/28 07:55:23;;;;;;;5.20;4.80;;;26.00;85.90;;;;;;6186643;23;20497;-90
2021/06/28 07:57:50;;;;;;;4.40;4.10;;;26.00;85.80;;;;;;6186549;23;20722;-89
2021/06/28 08:00:19;;;;;;;4.10;3.80;;;26.10;85.90;;;;;;6186115;23;20538;-90
2021/06/28 08:02:47;;;;;;;4.67;4.17;;;26.00;85.70;;;;;;6186389;23;20524;-89
2021/06/28 08:05:15;;;;;;;4.10;3.80;;;26.00;85.70;;;;;;6186645;23;20415;-90
2021/06/28 08:07:42;;;;;;;4.90;4.33;;;26.00;85.60;;;;;;6186444;23;20726;-89
2021/06/28 08:10:12;;;;;;;4.57;4.17;;;26.00;85.60;;;;;;6185995;23;20399;-90
2021/06/28 08:12:41;;;;;;;5.10;4.70;;;26.00;85.50;;;;;;6187074;23;20410;-90
2021/06/28 08:15:08;;;;;;;4.53;4.23;;;26.00;85.50;;;;;;6186190;23;20417;-90
2021/06/28 08:17:36;;;;;;;3.97;3.77;;;26.00;85.30;;;;;;6186639;23;20399;-89
2021/06/28 08:20:04;;;;;;;4.10;3.80;;;26.00;85.40;;;;;;6185889;23;20967;-89
2021/06/28 08:22:31;;;;;;;4.43;4.07;;;26.00;85.40;;;;;;6186600;23;20410;-90
2021/06/28 08:24:58;;;;;;;5.07;4.60;;;26.00;85.20;;;;;;6186448;23;20406;-90
2021/06/28 08:27:25;;;;;;;4.30;3.90;;;26.00;85.30;;;;;;6186322;23;20492;-90
2021/06/28 08:29:51;;;;;;;3.90;3.70;;;26.00;85.10;;;;;;6186029;23;20412;-90
2021/06/28 08:32:18;;;;;;;3.90;3.60;;;26.00;85.10;;;;;;6186124;23;20939;-90
2021/06/28 08:34:47;;;;;;;4.27;3.97;;;26.00;85.00;;;;;;6186409;23;20402;-90
2021/06/28 08:37:13;;;;;;;4.10;3.70;;;26.00;85.00;;;;;;6186097;23;20398;-90
2021/06/28 08:39:40;;;;;;;4.13;3.77;;;26.00;84.90;;;;;;6185934;23;20772;-90
2021/06/28 08:42:08;;;;;;;4.00;3.70;;;26.00;84.80;;;;;;6185971;23;20408;-90
2021/06/28 08:44:35;;;;;;;3.90;3.60;;;26.00;84.70;;;;;;6186039;23;20404;-90
2021/06/28 08:47:03;;;;;;;3.60;3.40;;;26.00;84.60;;;;;;6186268;23;20411;-90
2021/06/28 08:49:30;;;;;;;3.47;3.27;;;26.00;84.50;;;;;;6186405;23;20414;-90
2021/06/28 08:51:59;;;;;;;3.70;3.50;;;26.00;84.40;;;;;;6186371;23;20505;-90
2021/06/28 08:54:26;;;;;;;4.10;3.80;;;26.10;84.30;;;;;;6186321;23;20410;-90
2021/06/28 08:56:53;;;;;;;4.60;3.53;;;26.00;84.20;;;;;;6186230;23;20494;-90
2021/06/28 08:59:20;;;;;;;3.10;2.90;;;26.00;84.00;;;;;;6185754;23;20444;-90
2021/06/28 09:01:47;;;;;;;4.50;4.20;;;26.10;83.90;;;;;;6185976;23;20432;-90
2021/06/28 09:04:14;;;;;;;3.80;3.53;;;26.00;83.70;;;;;;6186158;23;20406;-90
2021/06/28 09:06:42;;;;;;;3.67;3.47;;;26.00;83.60;;;;;;6185925;23;20458;-88
2021/06/28 09:09:12;;;;;;;3.60;3.40;;;26.10;83.70;;;;;;6186032;23;20441;-88
2021/06/28 09:11:41;;;;;;;3.50;3.30;;;26.00;83.90;;;;;;6185847;23;20449;-88
2021/06/28 09:14:10;;;;;;;4.07;3.77;;;26.00;83.80;;;;;;6185830;23;20476;-88
2021/06/28 09:16:39;;;;;;;3.03;2.70;;;26.00;83.70;;;;;;6186080;23;20513;-88
2021/06/28 09:19:07;;;;;;;3.60;3.30;;;26.00;83.60;;;;;;6189744;23;20498;-88
2021/06/28 09:21:40;;;;;;;3.03;2.83;;;26.00;84.30;;;;;;6187246;23;20413;-88
2021/06/28 09:24:24;;;;;;;3.73;3.43;;;26.00;83.40;;;;;;6189142;23;20401;-88
2021/06/28 09:26:51;;;;;;;3.67;3.37;;;26.00;83.40;;;;;;6188160;23;20398;-88
2021/06/28 09:29:31;;;;;;;3.90;3.50;;;26.10;83.50;;;;;;6195512;23;20466;-88
2021/06/28 09:31:58;;;;;;;3.77;3.50;;;26.00;83.30;;;;;;6193489;23;20476;-88
2021/06/28 09:34:25;;;;;;;3.30;3.10;;;26.00;83.30;;;;;;6197793;23;21000;-88
2021/06/28 09:36:55;;;;;;;3.50;3.30;;;26.00;83.20;;;;;;6192916;23;20421;-88
2021/06/28 09:39:26;;;;;;;5.50;3.60;;;26.00;83.30;;;;;;6188772;23;20482;-87
2021/06/28 09:41:59;;;;;;;3.63;3.33;;;26.00;83.20;;;;;;6188693;23;20398;-88
2021/06/28 09:44:28;;;;;;;3.67;3.47;;;26.00;83.20;;;;;;6188402;23;20387;-88
2021/06/28 09:47:06;;;;;;;3.53;3.23;;;26.00;83.20;;;;;;6188772;23;20791;-88
2021/06/28 09:49:33;;;;;;;3.63;3.30;;;26.00;83.90;;;;;;6187424;23;20432;-89
2021/06/28 09:52:00;;;;;;;3.80;3.60;;;26.00;83.10;;;;;;6187838;23;20418;-88
2021/06/28 09:54:28;;;;;;;3.63;3.40;;;26.10;84.00;;;;;;6187788;23;20412;-89
2021/06/28 09:56:56;;;;;;;3.27;3.07;;;26.00;83.00;;;;;;6187574;23;20888;-88
2021/06/28 09:59:32;;;;;;;3.63;3.43;;;26.00;82.90;;;;;;6187532;23;20445;-88
2021/06/28 10:02:26;;;;;;;3.50;3.30;;;26.00;82.90;;;;;;6187539;23;20431;-88
2021/06/28 10:04:58;;;;;;;3.53;3.23;;;26.00;82.80;;;;;;6119008;23;20769;-89
2021/06/28 10:07:27;;;;;;;3.37;3.17;;;26.00;82.90;;;;;;6187523;23;20489;-88
2021/06/28 10:10:25;;;;;;;3.70;3.50;;;26.00;82.80;;;;;;6187397;23;20465;-88
2021/06/28 10:13:16;;;;;;;3.27;3.10;;;26.00;82.80;;;;;;6187801;23;20395;-89
2021/06/28 10:15:43;;;;;;;3.20;3.00;;;26.00;82.70;;;;;;6159183;23;20754;-88
2021/06/28 10:18:11;;;;;;;3.70;3.40;;;26.00;82.80;;;;;;6187473;23;20408;-87
2021/06/28 10:20:43;;;;;;;3.33;3.13;;;26.00;82.70;;;;;;6188445;23;20926;-87
2021/06/28 10:23:10;;;;;;;3.10;2.90;;;26.00;82.70;;;;;;6187876;23;20395;-88
2021/06/28 10:25:39;;;;;;;3.33;3.10;;;26.00;82.70;;;;;;6186977;23;20746;-89
2021/06/28 10:28:06;;;;;;;2.93;2.73;;;26.10;82.80;;;;;;6187617;23;20429;-89
2021/06/28 10:30:33;;;;;;;3.73;3.43;;;26.00;83.00;;;;;;6180429;23;20434;-88
2021/06/28 10:33:04;;;;;;;8.00;3.37;;;26.00;83.30;;;;;;6156726;23;20511;-88
2021/06/28 10:35:34;;;;;;;4.20;3.37;;;26.00;83.60;;;;;;6157224;23;20906;-88
2021/06/28 10:38:05;;;;;;;3.13;2.93;;;26.00;83.40;;;;;;6157476;23;20399;-88
2021/06/28 10:40:47;;;;;;;4.00;3.57;;;26.00;83.30;;;;;;6157045;23;20451;-88
2021/06/28 10:43:39;;;;;;;5.57;3.53;;;26.00;83.00;;;;;;6158080;23;20398;-91
2021/06/28 10:46:07;;;;;;;4.07;3.50;;;26.00;82.80;;;;;;6128517;23;20410;-90
2021/06/28 10:48:46;;;;;;;6.37;3.70;;;26.00;83.30;;;;;;6157445;23;20725;-90
2021/06/28 10:51:14;;;;;;;3.40;3.10;;;26.00;83.30;;;;;;6157363;23;20489;-89
2021/06/28 10:54:17;;;;;;;4.93;3.00;;;26.00;83.20;;;;;;6157465;23;20409;-90
2021/06/28 10:56:53;;;;;;;4.03;3.53;;;26.00;82.90;;;;;;6163490;23;20477;-89
2021/06/28 10:59:31;;;;;;;3.20;2.90;;;26.00;83.00;;;;;;6156859;23;20442;-90
2021/06/28 11:02:01;;;;;;;3.40;3.20;;;26.00;83.40;;;;;;6157619;23;20455;-90
2021/06/28 11:04:29;;;;;;;5.00;4.10;;;26.00;83.40;;;;;;6157242;23;20434;-90
2021/06/28 11:07:10;;;;;;;3.73;3.53;;;26.00;84.00;;;;;;6156957;23;20407;-90
2021/06/28 11:09:39;;;;;;;3.83;3.53;;;26.00;83.10;;;;;;6156980;23;20446;-89
2021/06/28 11:12:25;;;;;;;3.60;3.20;;;26.00;83.40;;;;;;6165910;23;20415;-92
2021/06/28 11:14:54;;;;;;;3.90;3.60;;;26.00;83.60;;;;;;6157686;23;20400;-91
2021/06/28 11:17:25;;;;;;;6.23;3.50;;;26.00;83.80;;;;;;6157405;23;20761;-92
2021/06/28 11:20:02;;;;;;;3.80;3.60;;;26.00;83.60;;;;;;6157444;23;20449;-92
2021/06/28 11:23:02;;;;;;;4.27;3.87;;;26.00;83.40;;;;;;6157314;23;20726;-93
2021/06/28 11:25:37;;;;;;;3.17;2.97;;;26.00;83.20;;;;;;6118254;23;20414;-92
2021/06/28 11:28:17;;;;;;;3.50;3.20;;;26.00;83.30;;;;;;6164214;23;20399;-92
2021/06/28 11:30:59;;;;;;;3.17;2.97;;;26.20;83.30;;;;;;6166704;23;20440;-92
2021/06/28 11:33:33;;;;;;;4.17;3.77;;;26.20;83.40;;;;;;6187682;23;20391;-93
2021/06/28 11:36:01;;;;;;;3.73;3.53;;;26.00;83.20;;;;;;6187162;23;20412;-92
2021/06/28 11:38:29;;;;;;;3.33;3.03;;;26.00;83.30;;;;;;6187095;23;20960;-92
2021/06/28 11:40:58;;;;;;;3.90;3.60;;;26.10;83.40;;;;;;6186736;23;20453;-93
2021/06/28 11:43:37;;;;;;;3.67;3.47;;;26.00;84.10;;;;;;6186779;23;20420;-93
2021/06/28 11:46:05;;;;;;;2.97;2.77;;;26.10;83.30;;;;;;6186800;23;20413;-92
2021/06/28 11:48:37;;;;;;;3.00;2.80;;;26.00;83.30;;;;;;6187161;23;20420;-93
2021/06/28 11:51:13;;;;;;;4.43;3.30;;;26.00;83.20;;;;;;6187330;23;20729;-92
2021/06/28 11:53:42;;;;;;;3.73;3.20;;;26.10;83.40;;;;;;6187319;23;20413;-93
2021/06/28 11:56:19;;;;;;;3.40;3.20;;;26.00;83.30;;;;;;6187188;23;20407;-91
2021/06/28 11:58:58;;;;;;;3.67;3.47;;;26.00;83.20;;;;;;6186869;23;20402;-93
2021/06/28 12:01:29;;;;;;;3.67;3.47;;;26.10;83.30;;;;;;6186828;23;20449;-92
2021/06/28 12:03:56;;;;;;;3.57;3.27;;;26.00;83.30;;;;;;6187748;23;20390;-92
2021/06/28 12:06:27;;;;;;;3.23;3.03;;;26.10;83.30;;;;;;6187191;23;20413;-92
2021/06/28 12:09:07;;;;;;;3.30;3.10;;;26.10;83.30;;;;;;6187166;23;20400;-91
2021/06/28 12:11:35;;;;;;;4.00;3.73;;;26.00;83.20;;;;;;6187008;23;20452;-92
2021/06/28 12:14:03;;;;;;;3.00;2.80;;;26.10;83.30;;;;;;6186607;23;20438;-91
2021/06/28 12:16:30;;;;;;;3.63;3.40;;;26.10;83.30;;;;;;6186765;23;20457;-92
2021/06/28 12:19:15;;;;;;;3.30;3.10;;;26.10;83.30;;;;;;6187507;23;20781;-92
2021/06/28 12:21:42;;;;;;;3.63;3.37;;;26.10;83.20;;;;;;6186693;23;20438;-93
2021/06/28 12:24:12;;;;;;;3.40;3.20;;;26.00;83.20;;;;;;6186244;23;20413;-92
2021/06/28 12:26:41;;;;;;;3.23;3.03;;;26.10;83.30;;;;;;6186433;23;20416;-91
2021/06/28 12:29:29;;;;;;;3.27;3.07;;;26.10;83.30;;;;;;6186622;23;20496;-92
2021/06/28 12:32:05;;;;;;;3.50;3.20;;;26.10;83.20;;;;;;6186080;23;20442;-92
2021/06/28 12:34:32;;;;;;;3.33;3.13;;;26.10;83.30;;;;;;6186812;23;20480;-92
2021/06/28 12:36:59;;;;;;;3.00;2.77;;;26.20;83.50;;;;;;6186968;23;20429;-92
2021/06/28 12:39:27;;;;;;;3.63;3.43;;;26.10;83.30;;;;;;6186998;23;20410;-92
2021/06/28 12:41:54;;;;;;;5.30;3.20;;;26.10;83.20;;;;;;6186166;23;20416;-92
2021/06/28 12:44:22;;;;;;;3.70;3.40;;;26.10;83.30;;;;;;6186585;23;20406;-92
2021/06/28 12:46:50;;;;;;;3.17;2.97;;;26.10;83.30;;;;;;6186704;23;20906;-93
2021/06/28 12:49:17;;;;;;;3.10;2.90;;;26.10;83.10;;;;;;6187163;23;20410;-92
2021/06/28 12:51:44;;;;;;;3.50;3.30;;;26.10;83.20;;;;;;6186766;23;20414;-92
2021/06/28 12:54:25;;;;;;;3.47;3.27;;;26.10;83.30;;;;;;6186860;23;20886;-92
2021/06/28 12:56:53;;;;;;;2.73;2.63;;;26.10;83.20;;;;;;6186621;23;20421;-92